Quick Links (Output Below):   Max & Min Temps   /   Climate Reports   /   Zone Forecasts
River Forecasts   /   Forestry Forecasts   /   Aviation Forecasts   /   Radars   /   Features

Terminal Aerodrome Forecast (El Dorado)

Pick a Site:
Arkadelphia | El Dorado | Fayetteville | Fort Smith | Harrison | Highfill | Hot Springs | Jonesboro
Little Rock | Monticello | Mountain Home | Pine Bluff | Texarkana
 Forecast 

KELD 221147Z 2212/2312 16009KT 6SM RA BR VCSH SCT045 OVC090
     FM221600 14010KT P6SM BKN045
     FM230300 13005KT P6SM OVC025
     FM230600 10008KT P6SM OVC015 PROB30 2306/2312 4SM TSRA BKN007
      OVC015CB=


 Latest METARs (Observations) 
How to Decode METARs
16Z KELD 221553Z AUTO 15007KT 10SM FEW090 OVC110 16/11 A3018 RMK AO2
         SLP218 T01560111
         
15Z KELD 221453Z AUTO 14008KT 10SM SCT080 14/12 A3018 RMK AO2 SLP219
         60004 T01440117 56005
         
14Z KELD 221353Z AUTO 12009KT 10SM FEW040 OVC070 13/11 A3018 RMK AO2
         RAE35 SLP220 P0001 T01280111
         
13Z KELD 221253Z AUTO 13007KT 10SM -RA BKN055 OVC070 12/11 A3019 RMK
         AO2 RAE25B49 SLP223 P0003 T01220106
         
12Z KELD 221153Z AUTO 13006KT 4SM +RA BR FEW060 BKN075 OVC090 12/11
         A3020 RMK AO2 SLP225 P0005 60009 70010 T01170106 10144 20117
         56006
         
11Z KELD 221053Z AUTO 16009KT 6SM RA BR OVC090 12/10 A3020 RMK AO2
         RAB10 SLP226 P0004 T01220100
         
10Z KELD 220953Z AUTO 16006KT 10SM BKN090 BKN110 14/09 A3021 RMK AO2
         SLP228 T01390089
         
09Z KELD 220853Z AUTO 15007KT 10SM FEW050 SCT080 14/09 A3022 RMK AO2
         SLP230 T01390094 56006
         
08Z KELD 220753Z AUTO 14008KT 10SM OVC050 14/09 A3022 RMK AO2 SLP232
         T01440094
         
07Z KELD 220653Z AUTO 15007KT 10SM BKN100 OVC120 14/09 A3023 RMK AO2
         SLP234 T01440094
         
***** Today's Observations (Above) *****


Back to Main Page
http://www.srh.noaa.gov/lzk/qfcst.php

USA.gov is the U.S. government's official web portal to all federal, state and local government web resources and services.